Time;durP1;ratioP1;P1;durP2;ratioP2;P2;SDS_P1;SDS_P2;PMS_P1;PMS_P2;Temp;Humidity;BMP_temperature;BMP_pressure;BME280_temperature;BME280_humidity;BME280_pressure;Samples;Min_cycle;Max_cycle;Signal;HPM_P1;HPM_P2
2022/09/03 00:02:10;;;;;;;21.50;20.33;;;;;;;;;;5036509;28;20438;-80
2022/09/03 00:04:43;;;;;;;21.10;20.00;;;;;;;;;;5036502;28;20480;-80
2022/09/03 00:07:16;;;;;;;22.03;20.83;;;;;;;;;;5036417;28;20481;-81
2022/09/03 00:09:47;;;;;;;21.10;20.00;;;;;;;;;;5036918;28;20484;-81
2022/09/03 00:12:18;;;;;;;21.90;20.50;;;;;;;;;;5037077;28;20423;-81
2022/09/03 00:14:49;;;;;;;20.20;19.20;;;;;;;;;;5037109;28;20473;-81
2022/09/03 00:17:18;;;;;;;20.70;19.67;;;;;;;;;;5036630;28;20476;-82
2022/09/03 00:19:48;;;;;;;21.27;20.17;;;;;;;;;;5039353;28;20464;-81
2022/09/03 00:22:18;;;;;;;21.53;20.33;;;;;;;;;;5038130;28;20430;-81
2022/09/03 00:24:46;;;;;;;20.47;19.47;;;;;;;;;;5036637;28;20474;-82
2022/09/03 00:27:15;;;;;;;21.50;20.30;;;;;;;;;;5036408;28;20447;-81
2022/09/03 00:29:46;;;;;;;20.90;19.80;;;;;;;;;;5036345;28;20486;-81
2022/09/03 00:32:17;;;;;;;21.07;19.87;;;;;;;;;;5036448;28;20439;-81
2022/09/03 00:34:47;;;;;;;21.13;19.90;;;;;;;;;;5036334;28;20405;-81
2022/09/03 00:37:15;;;;;;;21.60;20.40;;;;;;;;;;5035746;28;20470;-81
2022/09/03 00:39:43;;;;;;;21.20;20.10;;;;;;;;;;5036025;28;20495;-82
2022/09/03 00:42:18;;;;;;;21.77;20.67;;;;;;;;;;5035903;28;20456;-81
2022/09/03 00:44:54;;;;;;;21.80;20.70;;;;;;;;;;5036013;28;20526;-82
2022/09/03 00:47:27;;;;;;;21.27;20.20;;;;;;;;;;5035859;28;20552;-81
2022/09/03 00:50:00;;;;;;;21.60;20.33;;;;;;;;;;5036173;28;20440;-81
2022/09/03 00:52:36;;;;;;;22.47;20.37;;;;;;;;;;5035498;28;20904;-81
2022/09/03 00:55:09;;;;;;;21.77;20.37;;;;;;;;;;5035627;28;20471;-80
2022/09/03 00:57:43;;;;;;;21.40;20.27;;;;;;;;;;5034753;28;20429;-80
2022/09/03 01:00:12;;;;;;;21.00;19.80;;;;;;;;;;5036087;28;21032;-80
2022/09/03 01:02:49;;;;;;;20.50;19.40;;;;;;;;;;5035462;28;20515;-81
2022/09/03 01:05:21;;;;;;;21.00;19.73;;;;;;;;;;5035337;28;20798;-80
2022/09/03 01:07:56;;;;;;;20.87;19.77;;;;;;;;;;5035204;28;20444;-81
2022/09/03 01:10:30;;;;;;;21.83;20.63;;;;;;;;;;5035620;28;20511;-81
2022/09/03 01:13:02;;;;;;;21.63;20.53;;;;;;;;;;5035664;28;20490;-81
2022/09/03 01:15:31;;;;;;;21.47;20.37;;;;;;;;;;5035527;28;20444;-80
2022/09/03 01:18:08;;;;;;;21.47;20.17;;;;;;;;;;5035566;28;20483;-82
2022/09/03 01:20:44;;;;;;;21.13;20.03;;;;;;;;;;5035264;28;20566;-81
2022/09/03 01:23:30;;;;;;;21.50;20.40;;;;;;;;;;5035213;28;20787;-81
2022/09/03 01:26:03;;;;;;;21.13;20.03;;;;;;;;;;5035936;28;21001;-81
2022/09/03 01:28:39;;;;;;;20.93;19.83;;;;;;;;;;5034950;28;20484;-81
2022/09/03 01:31:12;;;;;;;21.30;20.10;;;;;;;;;;5034405;28;20464;-80
2022/09/03 01:33:41;;;;;;;21.20;20.00;;;;;;;;;;5035416;28;20435;-80
2022/09/03 01:36:12;;;;;;;22.60;21.20;;;;;;;;;;5035257;28;20453;-81
2022/09/03 01:38:44;;;;;;;21.67;20.57;;;;;;;;;;5035541;28;20474;-81
2022/09/03 01:44:08;;;;;;;21.10;20.00;;;;;;;;;;5035496;28;20512;-81
2022/09/03 01:46:38;;;;;;;21.53;20.43;;;;;;;;;;5035943;28;20798;-81
2022/09/03 01:49:11;;;;;;;21.90;20.70;;;;;;;;;;5035730;28;20460;-80
2022/09/03 01:51:40;;;;;;;21.67;20.47;;;;;;;;;;5035065;28;20555;-80
2022/09/03 01:54:14;;;;;;;21.43;20.23;;;;;;;;;;5035679;28;20418;-82
2022/09/03 01:56:58;;;;;;;22.03;20.83;;;;;;;;;;5038562;28;20416;-81
2022/09/03 01:59:30;;;;;;;22.67;21.37;;;;;;;;;;5035344;28;20470;-81
2022/09/03 02:02:00;;;;;;;21.17;20.00;;;;;;;;;;5033872;28;20852;-80
2022/09/03 02:04:28;;;;;;;20.90;19.90;;;;;;;;;;5034372;28;20467;-81
2022/09/03 02:06:57;;;;;;;21.10;20.00;;;;;;;;;;5034733;28;20453;-81
2022/09/03 02:09:25;;;;;;;21.23;20.13;;;;;;;;;;5035775;28;20440;-80
2022/09/03 02:11:56;;;;;;;21.80;20.50;;;;;;;;;;5033676;28;20957;-81
2022/09/03 02:14:24;;;;;;;20.57;19.50;;;;;;;;;;5034444;28;20549;-82
2022/09/03 02:16:53;;;;;;;21.37;20.17;;;;;;;;;;5034328;28;20915;-81
2022/09/03 02:19:20;;;;;;;20.87;19.77;;;;;;;;;;5034302;28;20523;-80
2022/09/03 02:21:51;;;;;;;21.67;20.57;;;;;;;;;;5033489;28;20453;-81
2022/09/03 02:24:19;;;;;;;21.37;20.27;;;;;;;;;;5034392;28;20472;-80
2022/09/03 02:26:46;;;;;;;21.27;20.17;;;;;;;;;;5034922;28;20446;-81
2022/09/03 02:29:14;;;;;;;22.23;20.73;;;;;;;;;;5034005;28;20543;-81
2022/09/03 02:31:41;;;;;;;21.50;20.30;;;;;;;;;;5033328;28;20583;-81
2022/09/03 02:34:10;;;;;;;21.80;20.70;;;;;;;;;;5034209;28;20427;-80
2022/09/03 02:36:38;;;;;;;21.73;20.63;;;;;;;;;;5034105;28;20455;-79
2022/09/03 02:39:06;;;;;;;21.93;20.83;;;;;;;;;;5033999;28;20469;-81
2022/09/03 02:41:34;;;;;;;20.80;19.80;;;;;;;;;;5033353;28;20446;-81
2022/09/03 02:44:04;;;;;;;22.33;21.13;;;;;;;;;;5033672;28;20484;-81
2022/09/03 02:46:34;;;;;;;21.40;20.30;;;;;;;;;;5034345;28;20472;-80
2022/09/03 02:49:01;;;;;;;20.93;19.93;;;;;;;;;;5034765;28;20480;-81
2022/09/03 02:51:35;;;;;;;20.87;19.77;;;;;;;;;;5033522;28;20451;-81
2022/09/03 02:54:02;;;;;;;21.60;20.40;;;;;;;;;;5033591;28;20527;-80
2022/09/03 02:56:30;;;;;;;21.87;20.67;;;;;;;;;;5035803;28;20473;-81
2022/09/03 02:58:57;;;;;;;21.07;19.97;;;;;;;;;;5035181;28;20473;-80
2022/09/03 03:01:25;;;;;;;21.03;20.00;;;;;;;;;;5033713;28;20460;-80
2022/09/03 03:03:53;;;;;;;21.40;20.30;;;;;;;;;;5034083;28;20493;-80
2022/09/03 03:06:20;;;;;;;22.17;21.07;;;;;;;;;;5038072;28;20445;-81
2022/09/03 03:08:49;;;;;;;22.03;20.67;;;;;;;;;;5039153;28;20973;-82
2022/09/03 03:11:17;;;;;;;21.73;20.60;;;;;;;;;;5037178;28;20435;-81
2022/09/03 03:13:45;;;;;;;21.70;20.57;;;;;;;;;;5033793;28;20472;-81
2022/09/03 03:16:13;;;;;;;20.80;19.70;;;;;;;;;;5033830;28;20779;-81
2022/09/03 03:18:40;;;;;;;20.80;19.70;;;;;;;;;;5034173;28;20984;-81
2022/09/03 03:21:08;;;;;;;21.47;20.27;;;;;;;;;;5037254;28;20446;-81
2022/09/03 03:23:36;;;;;;;22.00;20.70;;;;;;;;;;5037168;28;20480;-79
2022/09/03 03:26:06;;;;;;;21.67;20.57;;;;;;;;;;5041537;28;20475;-81
2022/09/03 03:28:33;;;;;;;22.07;20.77;;;;;;;;;;5037434;28;20468;-80
2022/09/03 03:31:05;;;;;;;21.10;20.00;;;;;;;;;;5037022;28;20426;-81
2022/09/03 03:33:33;;;;;;;21.00;19.90;;;;;;;;;;5037223;28;20471;-81
2022/09/03 03:36:04;;;;;;;21.87;20.67;;;;;;;;;;5038368;28;20452;-80
2022/09/03 03:38:31;;;;;;;21.80;20.50;;;;;;;;;;5038086;28;20477;-80
2022/09/03 03:40:59;;;;;;;21.80;20.40;;;;;;;;;;5037147;28;20438;-81
2022/09/03 03:43:27;;;;;;;21.07;19.87;;;;;;;;;;5036963;28;20471;-81
2022/09/03 03:45:58;;;;;;;21.10;20.00;;;;;;;;;;5037686;28;20480;-82
2022/09/03 03:48:25;;;;;;;20.80;19.70;;;;;;;;;;5037540;28;20830;-81
2022/09/03 03:50:53;;;;;;;20.97;19.83;;;;;;;;;;5037122;28;20797;-82
2022/09/03 03:53:20;;;;;;;21.10;20.00;;;;;;;;;;5036464;28;20465;-81
2022/09/03 03:55:55;;;;;;;21.13;20.03;;;;;;;;;;5037108;28;20433;-80
2022/09/03 03:58:22;;;;;;;21.93;20.63;;;;;;;;;;5037441;28;20429;-81
2022/09/03 04:00:51;;;;;;;21.57;20.37;;;;;;;;;;5037473;28;20435;-80
2022/09/03 04:03:19;;;;;;;20.70;19.63;;;;;;;;;;5037129;28;20430;-80
2022/09/03 04:05:55;;;;;;;20.00;19.00;;;;;;;;;;5037271;28;20452;-81
2022/09/03 04:08:23;;;;;;;20.97;19.80;;;;;;;;;;5036616;28;20446;-80
2022/09/03 04:10:50;;;;;;;21.60;20.40;;;;;;;;;;5037076;28;20452;-81
2022/09/03 04:13:18;;;;;;;22.03;20.77;;;;;;;;;;5036676;28;20426;-80
2022/09/03 04:15:45;;;;;;;22.00;20.83;;;;;;;;;;5036226;28;20459;-81
2022/09/03 04:18:14;;;;;;;22.60;21.30;;;;;;;;;;5036335;28;20455;-81
2022/09/03 04:20:42;;;;;;;21.90;20.70;;;;;;;;;;5036635;28;20463;-80
2022/09/03 04:23:09;;;;;;;21.60;20.40;;;;;;;;;;5036394;28;20430;-81
2022/09/03 04:25:37;;;;;;;21.80;20.60;;;;;;;;;;5035927;28;20973;-80
2022/09/03 04:28:05;;;;;;;21.63;20.33;;;;;;;;;;5036700;28;20477;-81
2022/09/03 04:30:32;;;;;;;22.20;21.00;;;;;;;;;;5035604;28;20452;-81
2022/09/03 04:32:59;;;;;;;21.33;20.20;;;;;;;;;;5036139;28;20488;-81
2022/09/03 04:35:28;;;;;;;24.20;22.80;;;;;;;;;;5036097;28;20460;-81
2022/09/03 04:37:56;;;;;;;21.20;20.10;;;;;;;;;;5036428;28;20477;-81
2022/09/03 04:40:23;;;;;;;22.60;21.40;;;;;;;;;;5036308;28;20525;-81
2022/09/03 04:42:51;;;;;;;21.77;20.57;;;;;;;;;;5035866;28;20434;-80
2022/09/03 04:45:18;;;;;;;21.87;20.67;;;;;;;;;;5035665;28;20496;-80
2022/09/03 04:47:46;;;;;;;21.60;20.50;;;;;;;;;;5035745;28;20481;-81
2022/09/03 04:50:14;;;;;;;21.17;19.97;;;;;;;;;;5036158;28;20481;-80
2022/09/03 04:52:43;;;;;;;21.90;20.70;;;;;;;;;;5035877;28;20815;-81
2022/09/03 04:55:11;;;;;;;21.37;20.17;;;;;;;;;;5035743;28;20477;-78
2022/09/03 04:57:38;;;;;;;22.80;21.20;;;;;;;;;;5035660;28;20901;-79
2022/09/03 05:00:10;;;;;;;20.50;19.30;;;;;;;;;;5035531;28;20499;-78
2022/09/03 05:02:37;;;;;;;20.77;19.67;;;;;;;;;;5035418;28;20471;-80
2022/09/03 05:05:05;;;;;;;21.40;20.20;;;;;;;;;;5035278;28;20512;-82
2022/09/03 05:07:37;;;;;;;21.70;20.50;;;;;;;;;;5035353;28;20458;-79
2022/09/03 05:10:08;;;;;;;21.50;20.30;;;;;;;;;;5035067;28;20473;-78
2022/09/03 05:12:37;;;;;;;22.33;21.07;;;;;;;;;;5034353;28;20384;-78
2022/09/03 05:15:05;;;;;;;21.93;20.73;;;;;;;;;;5035155;28;20414;-78
2022/09/03 05:17:32;;;;;;;22.60;20.90;;;;;;;;;;5035495;28;20419;-78
2022/09/03 05:19:59;;;;;;;21.63;20.43;;;;;;;;;;5035599;28;20594;-78
2022/09/03 05:22:27;;;;;;;21.70;20.50;;;;;;;;;;5036705;28;20524;-77
2022/09/03 05:24:55;;;;;;;20.87;19.77;;;;;;;;;;5036121;28;20484;-79
2022/09/03 05:27:23;;;;;;;21.20;20.00;;;;;;;;;;5035002;28;20471;-78
2022/09/03 05:29:51;;;;;;;21.20;19.53;;;;;;;;;;5034876;28;20443;-78
2022/09/03 05:32:18;;;;;;;21.63;20.33;;;;;;;;;;5035022;28;20418;-78
2022/09/03 05:34:46;;;;;;;20.57;19.40;;;;;;;;;;5034882;28;20419;-79
2022/09/03 05:37:13;;;;;;;20.83;19.73;;;;;;;;;;5035388;28;20809;-79
2022/09/03 05:39:40;;;;;;;20.97;19.73;;;;;;;;;;5034544;28;20540;-79
2022/09/03 05:42:08;;;;;;;20.40;19.30;;;;;;;;;;5037249;28;20440;-78
2022/09/03 05:44:37;;;;;;;20.70;19.60;;;;;;;;;;5034719;28;20519;-78
2022/09/03 05:47:05;;;;;;;21.63;20.43;;;;;;;;;;5034757;28;20447;-78
2022/09/03 05:49:32;;;;;;;21.63;20.43;;;;;;;;;;5034480;28;20946;-78
2022/09/03 05:51:59;;;;;;;22.00;20.70;;;;;;;;;;5034580;28;20449;-79
2022/09/03 05:54:27;;;;;;;21.97;20.87;;;;;;;;;;5034714;28;20431;-78
2022/09/03 05:56:54;;;;;;;21.40;20.20;;;;;;;;;;5034426;28;20447;-77
2022/09/03 05:59:21;;;;;;;21.53;20.33;;;;;;;;;;5034264;28;21000;-77
2022/09/03 06:01:50;;;;;;;21.80;20.60;;;;;;;;;;5033934;28;20408;-79
2022/09/03 06:04:17;;;;;;;20.63;19.53;;;;;;;;;;5034135;28;20453;-79
2022/09/03 06:06:46;;;;;;;21.27;20.17;;;;;;;;;;5034767;28;20817;-79
2022/09/03 06:09:15;;;;;;;20.47;19.37;;;;;;;;;;5034408;28;20555;-79
2022/09/03 06:11:43;;;;;;;21.57;20.40;;;;;;;;;;5034032;28;20492;-79
2022/09/03 06:14:11;;;;;;;20.80;19.60;;;;;;;;;;5034259;28;20443;-78
2022/09/03 06:16:40;;;;;;;20.50;19.40;;;;;;;;;;5034233;28;20475;-79
2022/09/03 06:19:09;;;;;;;21.50;20.20;;;;;;;;;;5033880;28;20493;-78
2022/09/03 06:21:41;;;;;;;21.47;20.20;;;;;;;;;;5034315;28;20463;-79
2022/09/03 06:24:09;;;;;;;21.30;20.20;;;;;;;;;;5034068;28;20507;-78
2022/09/03 06:26:37;;;;;;;21.00;19.90;;;;;;;;;;5034251;28;20481;-79
2022/09/03 06:29:04;;;;;;;21.67;20.37;;;;;;;;;;5033540;28;20551;-79
2022/09/03 06:31:32;;;;;;;21.17;20.00;;;;;;;;;;5033697;28;20432;-79
2022/09/03 06:33:59;;;;;;;20.57;19.47;;;;;;;;;;5034720;28;20433;-79
2022/09/03 06:36:28;;;;;;;20.27;19.17;;;;;;;;;;5035424;28;20473;-79
2022/09/03 06:38:57;;;;;;;21.80;20.50;;;;;;;;;;5034033;28;20483;-79
2022/09/03 06:41:25;;;;;;;21.20;20.00;;;;;;;;;;5034019;28;20965;-78
2022/09/03 06:43:53;;;;;;;20.90;19.73;;;;;;;;;;5034360;28;20436;-79
2022/09/03 06:46:21;;;;;;;20.60;19.50;;;;;;;;;;5036300;28;20501;-79
2022/09/03 06:48:49;;;;;;;21.10;19.90;;;;;;;;;;5034194;28;20540;-77
2022/09/03 06:51:18;;;;;;;21.00;19.80;;;;;;;;;;5034853;28;20472;-78
2022/09/03 06:53:47;;;;;;;20.80;19.60;;;;;;;;;;5034624;28;20947;-78
2022/09/03 06:56:17;;;;;;;21.40;20.20;;;;;;;;;;5038810;28;20512;-79
2022/09/03 06:58:45;;;;;;;20.97;19.87;;;;;;;;;;5037825;28;20986;-79
2022/09/03 07:01:13;;;;;;;21.50;20.30;;;;;;;;;;5038222;28;20946;-79
2022/09/03 07:03:41;;;;;;;21.80;20.60;;;;;;;;;;5038541;28;20505;-79
2022/09/03 07:06:09;;;;;;;21.13;20.03;;;;;;;;;;5039792;28;20455;-79
2022/09/03 07:08:37;;;;;;;21.17;19.93;;;;;;;;;;5037912;28;20485;-78
2022/09/03 07:11:08;;;;;;;20.80;19.70;;;;;;;;;;5039094;28;20412;-79
2022/09/03 07:13:35;;;;;;;20.90;19.80;;;;;;;;;;5037694;28;20412;-78
2022/09/03 07:16:03;;;;;;;21.23;19.93;;;;;;;;;;5038540;28;20448;-79
2022/09/03 07:18:30;;;;;;;24.67;23.13;;;;;;;;;;5037331;28;20464;-80
2022/09/03 07:20:59;;;;;;;21.00;19.60;;;;;;;;;;5038615;28;20437;-88
2022/09/03 07:23:26;;;;;;;21.27;19.77;;;;;;;;;;5037533;28;20472;-77
2022/09/03 07:25:55;;;;;;;21.30;19.80;;;;;;;;;;5037301;28;20455;-77
2022/09/03 07:28:24;;;;;;;21.00;19.70;;;;;;;;;;5040589;28;20468;-77
2022/09/03 07:30:52;;;;;;;20.60;19.30;;;;;;;;;;5038510;28;20493;-77
2022/09/03 07:33:19;;;;;;;20.60;19.50;;;;;;;;;;5040561;28;20419;-78
2022/09/03 07:35:46;;;;;;;21.50;20.40;;;;;;;;;;5041737;28;20447;-77
2022/09/03 07:38:17;;;;;;;21.60;20.40;;;;;;;;;;5038710;28;20967;-77
2022/09/03 07:40:45;;;;;;;20.90;19.80;;;;;;;;;;5036355;28;20444;-77
2022/09/03 07:43:13;;;;;;;23.27;22.03;;;;;;;;;;5036383;28;20475;-77
2022/09/03 07:45:45;;;;;;;22.57;21.20;;;;;;;;;;5037042;28;20984;-77
2022/09/03 07:48:12;;;;;;;21.20;19.97;;;;;;;;;;5038472;28;20818;-78
2022/09/03 07:50:39;;;;;;;21.73;20.53;;;;;;;;;;5036530;28;20465;-78
2022/09/03 07:53:07;;;;;;;20.17;19.00;;;;;;;;;;5037149;28;20456;-77
2022/09/03 07:55:35;;;;;;;20.13;19.03;;;;;;;;;;5037626;28;20464;-77
2022/09/03 07:58:02;;;;;;;19.97;18.90;;;;;;;;;;5037492;28;20428;-79
2022/09/03 08:00:32;;;;;;;22.07;20.63;;;;;;;;;;5039109;28;20444;-85
2022/09/03 08:03:05;;;;;;;21.70;20.40;;;;;;;;;;5037652;28;20556;-77
2022/09/03 08:05:34;;;;;;;20.23;19.13;;;;;;;;;;5037458;28;20496;-77
2022/09/03 08:08:02;;;;;;;22.07;20.67;;;;;;;;;;5037819;28;20946;-76
2022/09/03 08:10:30;;;;;;;20.87;19.67;;;;;;;;;;5036950;28;20983;-77
2022/09/03 08:12:58;;;;;;;20.70;19.50;;;;;;;;;;5035424;28;20470;-78
2022/09/03 08:15:25;;;;;;;21.70;20.50;;;;;;;;;;5040046;28;20421;-80
2022/09/03 08:17:53;;;;;;;22.60;21.17;;;;;;;;;;5036887;28;20445;-77
2022/09/03 08:20:22;;;;;;;21.03;19.83;;;;;;;;;;5038361;28;20428;-77
2022/09/03 08:22:50;;;;;;;20.83;19.73;;;;;;;;;;5039717;28;20460;-76
2022/09/03 08:25:17;;;;;;;21.77;20.67;;;;;;;;;;5037011;28;20480;-78
2022/09/03 08:27:47;;;;;;;22.17;20.87;;;;;;;;;;5039198;28;20550;-78
2022/09/03 08:30:14;;;;;;;22.13;20.93;;;;;;;;;;5038854;28;20482;-77
2022/09/03 08:32:41;;;;;;;22.20;21.10;;;;;;;;;;5036657;28;20453;-78
2022/09/03 08:35:09;;;;;;;22.40;21.20;;;;;;;;;;5037686;28;20424;-77
2022/09/03 08:37:38;;;;;;;20.70;19.60;;;;;;;;;;5037206;28;20496;-79
2022/09/03 08:40:06;;;;;;;21.17;20.07;;;;;;;;;;5036910;28;20444;-79
2022/09/03 08:42:39;;;;;;;21.10;20.00;;;;;;;;;;5036824;28;20417;-77
2022/09/03 08:45:08;;;;;;;21.30;20.10;;;;;;;;;;5036725;28;20408;-77
2022/09/03 08:47:37;;;;;;;21.30;20.20;;;;;;;;;;5036573;28;20487;-77
2022/09/03 08:50:10;;;;;;;21.97;20.77;;;;;;;;;;5036263;28;20495;-77
2022/09/03 08:52:41;;;;;;;21.70;20.50;;;;;;;;;;5036042;28;20444;-77
2022/09/03 08:55:20;;;;;;;22.00;20.80;;;;;;;;;;5035958;28;20434;-78
2022/09/03 08:57:48;;;;;;;22.13;20.73;;;;;;;;;;5036253;28;20460;-77
2022/09/03 09:00:16;;;;;;;22.10;20.90;;;;;;;;;;5037519;28;20448;-78
2022/09/03 09:02:50;;;;;;;20.93;19.83;;;;;;;;;;5036771;28;20433;-78
2022/09/03 09:05:19;;;;;;;22.00;20.80;;;;;;;;;;5035910;28;20448;-78
2022/09/03 09:07:52;;;;;;;21.70;20.60;;;;;;;;;;5036783;28;20490;-78
2022/09/03 09:10:25;;;;;;;22.23;20.83;;;;;;;;;;5036835;28;20420;-79
2022/09/03 09:12:58;;;;;;;21.70;20.60;;;;;;;;;;5036113;28;20408;-78
2022/09/03 09:15:29;;;;;;;22.10;20.90;;;;;;;;;;5036845;28;20835;-79
2022/09/03 09:18:06;;;;;;;22.70;21.30;;;;;;;;;;5035864;28;20786;-78
2022/09/03 09:20:36;;;;;;;22.57;21.17;;;;;;;;;;5036779;28;20440;-78
2022/09/03 09:23:06;;;;;;;21.73;20.63;;;;;;;;;;5035885;28;20423;-78
2022/09/03 09:25:38;;;;;;;23.13;21.73;;;;;;;;;;5035910;28;20425;-79
2022/09/03 09:28:11;;;;;;;22.80;21.60;;;;;;;;;;5035708;28;20447;-79
2022/09/03 09:30:39;;;;;;;23.23;22.03;;;;;;;;;;5035306;28;20422;-78
2022/09/03 09:33:06;;;;;;;22.93;21.50;;;;;;;;;;5035147;28;20466;-77
2022/09/03 09:35:33;;;;;;;23.20;21.90;;;;;;;;;;5035408;28;20443;-78
2022/09/03 09:38:01;;;;;;;21.90;20.70;;;;;;;;;;5035733;28;20450;-77
2022/09/03 09:40:34;;;;;;;22.97;21.77;;;;;;;;;;5034763;28;20452;-78
2022/09/03 09:43:09;;;;;;;22.27;21.07;;;;;;;;;;5034865;28;20435;-78
2022/09/03 09:45:39;;;;;;;22.17;20.87;;;;;;;;;;5035429;28;20420;-78
2022/09/03 09:48:09;;;;;;;22.90;21.67;;;;;;;;;;5034753;28;21036;-78
2022/09/03 09:50:37;;;;;;;22.07;20.87;;;;;;;;;;5034443;28;20455;-80
2022/09/03 09:53:13;;;;;;;22.10;20.90;;;;;;;;;;5034591;28;20449;-81
2022/09/03 09:55:50;;;;;;;22.90;21.50;;;;;;;;;;5040762;28;20451;-78
2022/09/03 09:58:20;;;;;;;22.70;21.43;;;;;;;;;;5054843;28;20469;-82
2022/09/03 10:00:57;;;;;;;23.73;22.30;;;;;;;;;;5053806;28;20477;-77
2022/09/03 10:03:25;;;;;;;23.00;21.70;;;;;;;;;;5054220;28;20442;-83
2022/09/03 10:08:53;;;;;;;22.53;21.27;;;;;;;;;;5061995;28;20526;-78
2022/09/03 10:11:24;;;;;;;23.10;21.77;;;;;;;;;;5061962;28;20466;-77
2022/09/03 10:13:53;;;;;;;22.83;21.53;;;;;;;;;;5064608;28;20463;-77
2022/09/03 10:16:25;;;;;;;22.90;21.70;;;;;;;;;;5062843;28;20456;-77
2022/09/03 10:18:55;;;;;;;25.23;23.83;;;;;;;;;;5065014;28;20452;-76
2022/09/03 10:21:27;;;;;;;24.00;22.60;;;;;;;;;;5065950;28;20482;-77
2022/09/03 10:23:57;;;;;;;24.30;22.80;;;;;;;;;;5061061;28;20500;-77
2022/09/03 10:26:28;;;;;;;23.40;22.10;;;;;;;;;;5060766;28;20455;-78
2022/09/03 10:28:57;;;;;;;23.20;21.97;;;;;;;;;;5062318;28;20453;-81
2022/09/03 10:31:32;;;;;;;24.93;23.43;;;;;;;;;;5062380;28;20416;-84
2022/09/03 10:34:02;;;;;;;24.40;23.10;;;;;;;;;;5056371;28;20511;-84
2022/09/03 10:36:35;;;;;;;24.00;22.70;;;;;;;;;;5061569;28;20453;-84
2022/09/03 10:39:06;;;;;;;22.37;21.13;;;;;;;;;;5064343;28;20470;-82
2022/09/03 10:41:46;;;;;;;21.90;20.70;;;;;;;;;;5063402;28;20390;-77
2022/09/03 10:44:25;;;;;;;22.30;21.10;;;;;;;;;;5066091;28;20564;-78
2022/09/03 10:46:57;;;;;;;24.50;23.17;;;;;;;;;;5067499;28;20557;-77
2022/09/03 10:49:33;;;;;;;23.77;22.27;;;;;;;;;;5066372;28;20496;-77
2022/09/03 10:52:04;;;;;;;23.40;22.20;;;;;;;;;;5057367;28;20454;-78
2022/09/03 10:54:37;;;;;;;23.63;22.30;;;;;;;;;;5055870;28;20523;-78
2022/09/03 10:57:10;;;;;;;24.27;22.87;;;;;;;;;;5055880;28;20441;-77
2022/09/03 10:59:44;;;;;;;23.80;22.57;;;;;;;;;;5055234;28;20484;-77
2022/09/03 11:02:25;;;;;;;23.87;22.57;;;;;;;;;;5055112;28;20461;-77
2022/09/03 11:04:54;;;;;;;22.70;21.40;;;;;;;;;;5055898;28;20441;-78
2022/09/03 11:07:23;;;;;;;23.60;22.20;;;;;;;;;;5056339;28;20872;-77
2022/09/03 11:09:53;;;;;;;23.50;22.20;;;;;;;;;;5055563;28;20477;-78
2022/09/03 11:12:26;;;;;;;24.13;22.30;;;;;;;;;;5056405;28;20420;-77
2022/09/03 11:14:57;;;;;;;23.17;21.67;;;;;;;;;;5055959;28;20396;-78
2022/09/03 11:17:26;;;;;;;22.43;21.23;;;;;;;;;;5055872;28;20469;-78
2022/09/03 11:19:57;;;;;;;23.00;21.80;;;;;;;;;;5056356;28;20481;-78
2022/09/03 11:22:25;;;;;;;22.90;21.50;;;;;;;;;;5055394;28;20821;-78
2022/09/03 11:24:55;;;;;;;22.37;20.90;;;;;;;;;;5056301;28;20449;-82
2022/09/03 11:27:30;;;;;;;22.40;21.20;;;;;;;;;;5056068;28;20565;-82
2022/09/03 11:30:00;;;;;;;22.37;21.07;;;;;;;;;;5056004;28;20497;-82
2022/09/03 11:32:33;;;;;;;23.20;22.00;;;;;;;;;;5054739;28;20938;-79
2022/09/03 11:35:02;;;;;;;23.73;22.43;;;;;;;;;;5058228;28;20847;-77
2022/09/03 11:37:30;;;;;;;22.53;21.23;;;;;;;;;;5054894;28;20420;-77
2022/09/03 11:39:59;;;;;;;23.07;21.87;;;;;;;;;;5054494;28;20557;-78
2022/09/03 11:42:30;;;;;;;22.83;21.53;;;;;;;;;;5057889;28;20818;-79
2022/09/03 11:45:01;;;;;;;22.50;21.30;;;;;;;;;;5059346;28;20435;-77
2022/09/03 11:47:39;;;;;;;22.20;21.00;;;;;;;;;;5067593;28;20493;-78
2022/09/03 11:50:08;;;;;;;23.20;21.90;;;;;;;;;;5060002;28;20781;-76
2022/09/03 11:52:39;;;;;;;23.17;21.87;;;;;;;;;;5059693;28;20803;-77
2022/09/03 11:55:07;;;;;;;21.40;20.30;;;;;;;;;;5060989;28;20405;-78
2022/09/03 11:57:42;;;;;;;22.37;21.07;;;;;;;;;;5058969;28;20454;-78
2022/09/03 12:00:11;;;;;;;22.40;21.20;;;;;;;;;;5059456;28;20549;-76
2022/09/03 12:02:43;;;;;;;23.90;22.60;;;;;;;;;;5060132;28;20409;-78
2022/09/03 12:05:24;;;;;;;23.73;21.97;;;;;;;;;;5059723;28;20842;-78
2022/09/03 12:08:01;;;;;;;23.17;21.93;;;;;;;;;;5059586;28;20455;-78
2022/09/03 12:10:36;;;;;;;23.47;22.17;;;;;;;;;;5058697;28;20437;-77
2022/09/03 12:13:14;;;;;;;23.20;21.87;;;;;;;;;;5058495;28;20939;-78
2022/09/03 12:15:50;;;;;;;22.30;21.00;;;;;;;;;;5059687;28;20450;-78
2022/09/03 12:18:21;;;;;;;22.37;21.17;;;;;;;;;;5058514;28;20452;-77
2022/09/03 12:20:51;;;;;;;22.60;21.30;;;;;;;;;;5057650;28;20521;-78
2022/09/03 12:23:27;;;;;;;23.17;21.97;;;;;;;;;;5058014;28;20430;-78
2022/09/03 12:25:54;;;;;;;23.20;21.73;;;;;;;;;;5061726;28;20443;-77
2022/09/03 12:28:24;;;;;;;22.77;21.57;;;;;;;;;;5058170;28;20555;-78
2022/09/03 12:30:52;;;;;;;22.57;21.37;;;;;;;;;;5056767;28;20846;-78
2022/09/03 12:33:21;;;;;;;23.30;21.97;;;;;;;;;;5055710;28;20471;-78
2022/09/03 12:35:57;;;;;;;24.90;23.33;;;;;;;;;;5057623;28;20456;-78
2022/09/03 12:38:25;;;;;;;22.37;21.17;;;;;;;;;;5056980;28;20974;-78
2022/09/03 12:40:53;;;;;;;22.27;20.73;;;;;;;;;;5056727;28;20788;-79
2022/09/03 12:43:21;;;;;;;21.80;20.33;;;;;;;;;;5056933;28;20489;-78
2022/09/03 12:45:50;;;;;;;22.13;20.73;;;;;;;;;;5057502;28;20475;-78
2022/09/03 12:48:19;;;;;;;21.70;20.20;;;;;;;;;;5056997;28;20458;-77
2022/09/03 12:50:48;;;;;;;21.53;20.13;;;;;;;;;;5056862;28;20447;-78
2022/09/03 12:53:18;;;;;;;21.87;20.67;;;;;;;;;;5055530;28;20428;-77
2022/09/03 12:55:47;;;;;;;22.60;21.30;;;;;;;;;;5056984;28;20439;-78
2022/09/03 12:58:18;;;;;;;21.73;20.33;;;;;;;;;;5056927;28;20486;-78
2022/09/03 13:00:46;;;;;;;22.50;21.00;;;;;;;;;;5056436;28;20483;-77
2022/09/03 13:03:17;;;;;;;21.93;20.83;;;;;;;;;;5055908;28;20442;-78
2022/09/03 13:05:46;;;;;;;22.53;21.23;;;;;;;;;;5055860;28;20858;-78
2022/09/03 13:08:16;;;;;;;21.80;20.40;;;;;;;;;;5056184;28;20466;-78
2022/09/03 13:10:44;;;;;;;22.07;20.87;;;;;;;;;;5056993;28;20413;-78
2022/09/03 13:13:20;;;;;;;22.90;21.53;;;;;;;;;;5056330;28;20439;-78
2022/09/03 13:15:57;;;;;;;23.00;21.80;;;;;;;;;;5057560;28;20962;-77
2022/09/03 13:18:29;;;;;;;22.53;21.23;;;;;;;;;;5056855;28;20436;-77
2022/09/03 13:21:06;;;;;;;23.37;22.17;;;;;;;;;;5056500;28;20392;-78
2022/09/03 13:23:45;;;;;;;21.60;20.50;;;;;;;;;;5058491;28;20462;-77
2022/09/03 13:26:18;;;;;;;22.33;21.17;;;;;;;;;;5057235;28;20413;-77
2022/09/03 13:28:50;;;;;;;22.37;21.20;;;;;;;;;;5056986;28;20497;-78
2022/09/03 13:31:26;;;;;;;23.33;21.87;;;;;;;;;;5058885;28;20417;-77
2022/09/03 13:34:02;;;;;;;22.07;20.87;;;;;;;;;;5058015;28;20425;-78
2022/09/03 13:36:31;;;;;;;21.73;20.43;;;;;;;;;;5057050;28;20398;-77
2022/09/03 13:39:04;;;;;;;22.67;20.80;;;;;;;;;;5058054;28;20478;-78
2022/09/03 13:41:35;;;;;;;23.10;21.70;;;;;;;;;;5055986;28;20440;-77
2022/09/03 13:44:07;;;;;;;22.37;20.87;;;;;;;;;;5056629;28;20510;-77
2022/09/03 13:46:40;;;;;;;21.10;20.00;;;;;;;;;;5060127;28;20489;-76
2022/09/03 13:52:06;;;;;;;21.63;20.53;;;;;;;;;;5060896;28;20389;-77
2022/09/03 13:54:36;;;;;;;22.77;21.37;;;;;;;;;;5061570;28;20436;-77
2022/09/03 13:57:05;;;;;;;22.50;21.30;;;;;;;;;;5061839;28;20451;-78
2022/09/03 13:59:36;;;;;;;21.30;20.10;;;;;;;;;;5064077;28;21019;-77
2022/09/03 14:02:19;;;;;;;21.80;20.70;;;;;;;;;;5063446;28;20416;-78
2022/09/03 14:04:56;;;;;;;22.30;20.60;;;;;;;;;;5061193;28;20450;-77
2022/09/03 14:07:26;;;;;;;20.80;19.70;;;;;;;;;;5059821;28;20911;-77
2022/09/03 14:09:57;;;;;;;21.20;20.10;;;;;;;;;;5059084;28;20470;-78
2022/09/03 14:12:30;;;;;;;21.40;20.30;;;;;;;;;;5059386;28;20425;-77
2022/09/03 14:15:02;;;;;;;21.03;19.93;;;;;;;;;;5057477;28;20413;-78
2022/09/03 14:17:34;;;;;;;21.20;20.10;;;;;;;;;;5058330;28;20513;-78
2022/09/03 14:20:05;;;;;;;21.47;20.27;;;;;;;;;;5060942;28;20448;-78
2022/09/03 14:22:44;;;;;;;22.00;20.80;;;;;;;;;;5060354;28;20516;-78
2022/09/03 14:25:13;;;;;;;21.43;20.13;;;;;;;;;;5060496;28;20866;-78
2022/09/03 14:27:40;;;;;;;21.23;20.03;;;;;;;;;;5061832;28;20433;-78
2022/09/03 14:30:18;;;;;;;21.40;20.10;;;;;;;;;;5054615;28;20823;-78
2022/09/03 14:32:49;;;;;;;21.20;19.97;;;;;;;;;;5059244;28;20866;-78
2022/09/03 14:35:27;;;;;;;21.50;20.30;;;;;;;;;;5054697;28;20514;-78
2022/09/03 14:38:12;;;;;;;21.87;20.67;;;;;;;;;;5062641;28;20439;-78
2022/09/03 14:40:41;;;;;;;21.57;20.20;;;;;;;;;;5062047;28;20440;-77
2022/09/03 14:43:17;;;;;;;21.97;20.53;;;;;;;;;;5060231;28;20417;-78